Portsmouth, NH (03801)

1:48 PM EST on February 13, 2016 (GMT -0500)
Marjorie Street | | Change Station
CLOSE
Current Station
Personal Weather Station
Location: Portsmouth, NH
Elevation: 43 ft
Nearby Weather Stations
Active Advisory: Wind Chill Advisory Active Notice: Public Information Statement

Elev 43 ft 43.06 °N, 70.78 °W | Updated 1 second ago

Mostly Cloudy
Mostly Cloudy
20.8 °F
Feels Like 21 °F
N
1.3
Wind Variable Wind from NE
Gusts 7.4 mph

Today
High -- | Low -- °F
--% Chance of Precip.
Yesterday
High -- | Low -- °F
Precip. -- in
Pressure 29.81 in
Visibility 10.0 miles
Clouds Scattered Clouds 5500 ft
Mostly Cloudy 25000 ft
Windchill 21 °F
Dew Point -11 °F
Humidity 19%
Rainfall 0.00 in
Snow Depth Not available.
6:44 AM 5:11 PM
Waxing Crescent, 33% visible
METAR KPSM 131758Z 28014G28KT 10SM SCT055 BKN250 M07/M19 A2980 RMK AO2A PK WND 29028/50 SLP095 4/007 T10741187 11059 21113 50006
Pressure 29.81 in
Visibility 10.0 miles
Clouds Scattered Clouds 5500 ft
Mostly Cloudy 25000 ft
Windchill 21 °F
Dew Point -11 °F
Humidity 19%
Rainfall 0.00 in
Snow Depth Not available.
6:44 AM 5:11 PM
Waxing Crescent, 33% visible
METAR KPSM 131758Z 28014G28KT 10SM SCT055 BKN250 M07/M19 A2980 RMK AO2A PK WND 29028/50 SLP095 4/007 T10741187 11059 21113 50006

10-Day Weather Forecast

Almanac

Astronomy

Feb. 13, 2016 Rise Set
Actual Time
Civil Twilight
Nautical Twilight
Astronomical Twilight
Moon
Length of Visible Light
Length of Day
Tomorrow will be .
, % of the Moon is Illuminated

Today's Extremes

State Highs State Lows

Community

WunderPhotos

Upload Photos

1,892,633 photos uploaded!

WunderBlog® & News

Nearby

Air Quality

  Air Quality AQ Index Pollutant
Not available.

Snow Depth

Station Depth Elevation

Earthquake Activity

City Distance Mag. Time & Date
Minimum magnitude displayed is 2.5.

Coastal Water Temperatures

Place Temperature

Stations

Nearby Weather Stations

Station Location Temp. Windchill Dew Point Humidity Wind Precip. Elev Updated Type
                   

Watches & Warnings

Wind Chill Advisory
Issued: 12:17 PM EST Feb. 13, 2016 – National Weather Service

... Wind Chill Advisory remains in effect from midnight tonight to
10 am EST Sunday...

* hazard types... low wind chills

* wind chill... as low as 31 below due to temperatures 8 below to
2 above zero... and winds northwest 15 to 25 mph with gusts up
to 35 mph.

* Timing... Saturday night and Sunday morning.

* Impacts... frostbite and hypothermia if unprotected from the
cold.

* Winds... northwest 15 to 25 mph with gusts up to 35 mph.

* Temperatures... 8 below to 2 above zero.

Precautionary/preparedness actions...

A Wind Chill Advisory means that very cold air and strong winds
will combine to generate low wind chills. This will result in
frost bite and lead to hypothermia if precautions are not taken.
If you must venture outdoors... make sure you wear a hat and
gloves.